Time;durP1;ratioP1;P1;durP2;ratioP2;P2;SDS_P1;SDS_P2;PMS_P1;PMS_P2;Temp;Humidity;BMP_temperature;BMP_pressure;BME280_temperature;BME280_humidity;BME280_pressure;Samples;Min_cycle;Max_cycle;Signal;HPM_P1;HPM_P2
2022/04/07 00:01:08;;;;;;;7.97;5.25;;;;;;;9.67;60.57;98398.16;4468511;32;33916;-68
2022/04/07 00:03:36;;;;;;;6.95;5.57;;;;;;;10.12;59.58;98387.44;4468063;32;34082;-69
2022/04/07 00:06:09;;;;;;;8.73;5.82;;;;;;;10.03;59.70;98387.19;4467884;32;34131;-68
2022/04/07 00:08:37;;;;;;;9.27;5.32;;;;;;;10.06;59.68;98384.75;4468308;32;33755;-68
2022/04/07 00:11:06;;;;;;;6.62;4.97;;;;;;;9.78;60.32;98380.81;4466148;32;34205;-68
2022/04/07 00:13:33;;;;;;;8.57;5.85;;;;;;;9.44;61.41;98375.25;4452253;32;33856;-68
2022/04/07 00:16:08;;;;;;;8.50;5.10;;;;;;;9.35;61.66;98375.00;4439398;32;34945;-69
2022/04/07 00:18:36;;;;;;;7.65;4.95;;;;;;;9.38;61.47;98362.81;4452522;32;34472;-68
2022/04/07 00:21:11;;;;;;;8.40;5.55;;;;;;;9.49;61.14;98371.72;4452403;32;33849;-69
2022/04/07 00:23:40;;;;;;;7.80;5.20;;;;;;;9.15;62.33;98356.09;4437808;32;34013;-69
2022/04/07 00:26:08;;;;;;;9.30;5.22;;;;;;;9.72;60.55;98357.53;4455153;32;34264;-69
2022/04/07 00:28:35;;;;;;;10.18;5.37;;;;;;;9.25;61.73;98358.78;4467993;32;34578;-68
2022/04/07 00:31:03;;;;;;;12.43;6.32;;;;;;;9.72;60.65;98354.00;4465566;32;83175;-68
2022/04/07 00:33:30;;;;;;;11.07;5.90;;;;;;;9.47;60.65;98353.03;4467618;32;34199;-70
2022/04/07 00:35:57;;;;;;;11.48;5.97;;;;;;;9.42;60.80;98345.72;4467172;32;35092;-69
2022/04/07 00:38:25;;;;;;;11.32;5.95;;;;;;;9.85;59.65;98348.00;4468325;32;33684;-70
2022/04/07 00:40:52;;;;;;;11.00;5.85;;;;;;;9.30;61.09;98339.81;4463847;32;33935;-69
2022/04/07 00:43:36;;;;;;;9.50;5.45;;;;;;;9.15;61.52;98339.84;4451990;32;35175;-69
2022/04/07 00:46:04;;;;;;;10.75;5.78;;;;;;;9.30;61.46;98341.72;4450709;32;34306;-69
2022/04/07 00:48:35;;;;;;;11.63;5.65;;;;;;;9.23;61.34;98333.88;4452247;32;33706;-69
2022/04/07 00:51:05;;;;;;;10.60;5.53;;;;;;;9.48;60.83;98327.59;4452352;32;33680;-69
2022/04/07 00:53:32;;;;;;;9.45;6.22;;;;;;;9.12;61.75;98324.97;4451721;32;35129;-70
2022/04/07 00:56:01;;;;;;;9.57;5.85;;;;;;;9.85;59.68;98329.06;4462203;32;35044;-68
2022/04/07 00:58:32;;;;;;;10.55;6.03;;;;;;;9.74;59.44;98324.75;4452276;32;34405;-68
2022/04/07 01:00:59;;;;;;;8.18;5.10;;;;;;;9.88;59.26;98324.97;4452311;32;33859;-69
2022/04/07 01:03:27;;;;;;;9.77;5.20;;;;;;;9.52;60.06;98317.00;4451896;32;34167;-69
2022/04/07 01:05:56;;;;;;;7.85;5.25;;;;;;;9.78;59.56;98314.97;4451845;32;33997;-69
2022/04/07 01:08:23;;;;;;;8.25;5.30;;;;;;;9.05;61.81;98319.03;4460828;32;34365;-68
2022/04/07 01:10:51;;;;;;;8.50;4.93;;;;;;;8.72;62.85;98315.03;4464420;32;33482;-69
2022/04/07 01:13:19;;;;;;;8.88;6.22;;;;;;;8.86;62.41;98320.72;4451362;32;34700;-68
2022/04/07 01:15:46;;;;;;;8.50;5.55;;;;;;;8.17;64.75;98315.53;4451807;32;34041;-68
2022/04/07 01:18:14;;;;;;;9.13;5.80;;;;;;;8.57;63.74;98315.84;4437813;32;33637;-69
2022/04/07 01:20:41;;;;;;;7.43;5.30;;;;;;;8.35;64.28;98313.38;4451558;32;34681;-69
2022/04/07 01:23:09;;;;;;;8.02;5.28;;;;;;;8.33;64.23;98310.94;4451493;32;33959;-69
2022/04/07 01:25:37;;;;;;;8.52;6.10;;;;;;;8.64;63.38;98300.19;4450391;32;34898;-70
2022/04/07 01:28:04;;;;;;;9.25;5.78;;;;;;;8.65;63.14;98300.97;4455662;32;33586;-70
2022/04/07 01:30:34;;;;;;;9.85;5.85;;;;;;;8.92;62.61;98298.78;4467365;32;34580;-69
2022/04/07 01:33:02;;;;;;;8.32;5.78;;;;;;;8.76;63.18;98289.06;4467341;32;34170;-69
2022/04/07 01:35:30;;;;;;;8.77;5.68;;;;;;;8.72;63.37;98290.69;4468021;32;33849;-69
2022/04/07 01:37:59;;;;;;;9.75;5.60;;;;;;;9.08;62.33;98286.03;4453865;32;34453;-69
2022/04/07 01:40:33;;;;;;;7.57;5.20;;;;;;;9.04;62.58;98279.53;4440172;32;33919;-70
2022/04/07 01:43:01;;;;;;;9.13;5.60;;;;;;;9.38;61.41;98276.19;4452213;32;35400;-69
2022/04/07 01:45:30;;;;;;;8.10;5.00;;;;;;;8.85;63.09;98281.19;4458149;32;34313;-68
2022/04/07 01:48:00;;;;;;;8.20;5.53;;;;;;;8.71;63.53;98287.19;4455188;32;34180;-70
2022/04/07 01:50:29;;;;;;;8.45;5.32;;;;;;;9.51;60.88;98282.91;4469383;32;34075;-70
2022/04/07 01:52:57;;;;;;;9.35;5.70;;;;;;;9.43;60.96;98281.56;4469105;32;34302;-68
2022/04/07 01:55:26;;;;;;;7.55;4.68;;;;;;;9.35;60.95;98282.12;4469104;32;35443;-69
2022/04/07 01:57:54;;;;;;;7.62;4.95;;;;;;;9.53;60.26;98276.13;4462930;32;34283;-67
2022/04/07 02:00:21;;;;;;;7.40;4.87;;;;;;;8.86;62.59;98272.03;4454094;32;33861;-69
2022/04/07 02:02:51;;;;;;;7.57;4.93;;;;;;;8.81;62.67;98267.41;4453761;32;34428;-68
2022/04/07 02:05:19;;;;;;;8.05;5.47;;;;;;;8.57;63.54;98253.66;4453611;32;34117;-68
2022/04/07 02:07:47;;;;;;;8.48;5.50;;;;;;;8.72;63.12;98253.63;4453851;32;33758;-68
2022/04/07 02:10:15;;;;;;;7.80;4.82;;;;;;;9.22;61.91;98246.47;4453573;32;33942;-69
2022/04/07 02:12:43;;;;;;;7.18;4.30;;;;;;;9.12;62.37;98232.19;4460218;32;34009;-68
2022/04/07 02:15:12;;;;;;;6.93;4.65;;;;;;;9.82;60.39;98237.50;4469219;32;34291;-68
2022/04/07 02:17:40;;;;;;;7.32;4.32;;;;;;;9.24;61.65;98235.34;4469022;32;33664;-68
2022/04/07 02:20:09;;;;;;;7.07;4.35;;;;;;;9.09;62.17;98225.41;4469083;32;33754;-68
2022/04/07 02:22:37;;;;;;;7.28;4.93;;;;;;;8.93;63.04;98221.16;4469287;32;34092;-68
2022/04/07 02:25:05;;;;;;;6.28;4.72;;;;;;;9.10;62.51;98210.00;4468773;32;34236;-69
2022/04/07 02:27:39;;;;;;;7.28;4.72;;;;;;;8.95;62.97;98202.75;4461180;32;33531;-68
2022/04/07 02:30:10;;;;;;;7.30;4.70;;;;;;;9.33;61.85;98200.41;4453482;32;33755;-68
2022/04/07 02:32:37;;;;;;;6.55;4.30;;;;;;;9.29;61.55;98196.63;4453572;32;34956;-69
2022/04/07 02:35:05;;;;;;;10.85;5.85;;;;;;;8.43;64.13;98193.97;4453364;32;34920;-69
2022/04/07 02:37:33;;;;;;;14.65;8.32;;;;;;;8.63;63.73;98188.50;4453385;32;33696;-69
2022/04/07 02:39:59;;;;;;;14.20;8.05;;;;;;;8.41;64.62;98196.13;4453549;32;34259;-69
2022/04/07 02:42:27;;;;;;;10.50;6.90;;;;;;;8.65;64.15;98188.22;4461796;32;33934;-70
2022/04/07 02:44:54;;;;;;;12.50;7.60;;;;;;;9.07;62.79;98191.59;4467784;32;34165;-69
2022/04/07 02:47:33;;;;;;;13.57;7.47;;;;;;;8.85;62.92;98175.72;4468786;32;33784;-68
2022/04/07 02:50:01;;;;;;;10.60;6.70;;;;;;;8.86;63.24;98170.06;4468924;32;34264;-69
2022/04/07 02:52:28;;;;;;;10.00;6.05;;;;;;;9.34;61.86;98166.84;4469038;32;33859;-68
2022/04/07 02:54:55;;;;;;;7.78;5.25;;;;;;;9.68;60.42;98158.78;4468862;32;34058;-68
2022/04/07 02:57:23;;;;;;;9.77;6.03;;;;;;;9.45;61.46;98157.56;4458540;32;33786;-69
2022/04/07 02:59:51;;;;;;;8.27;5.40;;;;;;;9.17;62.01;98148.28;4453439;32;34791;-68
2022/04/07 03:02:19;;;;;;;10.18;6.00;;;;;;;9.05;62.67;98145.91;4453352;32;34715;-68
2022/04/07 03:04:47;;;;;;;9.02;5.80;;;;;;;8.60;64.01;98143.09;4438869;32;34284;-69
2022/04/07 03:07:15;;;;;;;10.02;6.90;;;;;;;8.41;64.73;98140.16;4465561;32;34376;-70
2022/04/07 03:09:42;;;;;;;10.95;6.05;;;;;;;8.37;65.00;98139.06;4468930;32;33610;-68
2022/04/07 03:12:10;;;;;;;10.30;6.87;;;;;;;8.91;63.49;98140.28;4458267;32;33962;-68
2022/04/07 03:14:37;;;;;;;10.95;6.72;;;;;;;8.90;63.53;98135.13;4453187;32;34553;-69
2022/04/07 03:17:05;;;;;;;11.82;6.75;;;;;;;9.35;61.97;98138.69;4453316;32;34579;-68
2022/04/07 03:19:32;;;;;;;8.30;5.15;;;;;;;8.46;64.58;98138.53;4453127;32;34713;-69
2022/04/07 03:22:00;;;;;;;9.65;5.32;;;;;;;8.54;64.34;98140.69;4453134;32;34278;-69
2022/04/07 03:24:27;;;;;;;9.32;5.68;;;;;;;8.76;63.55;98141.13;4438940;32;33689;-69
2022/04/07 03:27:06;;;;;;;9.90;6.47;;;;;;;8.59;64.17;98137.97;4463517;32;34383;-69
2022/04/07 03:29:34;;;;;;;8.57;5.70;;;;;;;8.72;63.64;98141.97;4468584;32;34687;-68
2022/04/07 03:32:04;;;;;;;8.55;5.40;;;;;;;8.71;63.91;98143.88;4468922;32;33990;-69
2022/04/07 03:34:36;;;;;;;8.43;4.70;;;;;;;8.73;63.86;98139.00;4468285;32;34875;-68
2022/04/07 03:37:04;;;;;;;9.30;4.80;;;;;;;7.74;66.54;98130.50;4468598;32;34369;-68
2022/04/07 03:39:33;;;;;;;7.05;5.15;;;;;;;8.50;64.34;98123.41;4456204;32;33686;-69
2022/04/07 03:42:00;;;;;;;7.15;4.85;;;;;;;8.69;63.55;98121.72;4463533;32;35147;-68
2022/04/07 03:44:28;;;;;;;9.00;5.22;;;;;;;8.87;62.74;98114.88;4468128;32;34231;-69
2022/04/07 03:46:57;;;;;;;11.27;4.62;;;;;;;8.98;62.34;98107.50;4468664;32;33679;-69
2022/04/07 03:49:25;;;;;;;7.50;4.28;;;;;;;8.89;62.81;98111.88;4468547;32;34003;-68
2022/04/07 03:51:53;;;;;;;6.28;4.40;;;;;;;8.73;63.07;98111.16;4468475;32;33825;-68
2022/04/07 03:54:20;;;;;;;7.40;4.60;;;;;;;8.77;62.67;98106.81;4455384;32;34729;-68
2022/04/07 03:56:48;;;;;;;9.73;5.00;;;;;;;8.51;63.56;98098.81;4452863;32;33020;-68
2022/04/07 03:59:15;;;;;;;7.47;4.60;;;;;;;9.14;61.90;98100.12;4463073;32;35387;-68
2022/04/07 04:01:44;;;;;;;5.53;3.92;;;;;;;9.01;62.35;98093.44;4468340;32;34315;-68
2022/04/07 04:04:13;;;;;;;6.25;4.03;;;;;;;9.51;61.10;98079.84;4468203;32;34318;-69
2022/04/07 04:06:42;;;;;;;5.53;3.47;;;;;;;8.91;62.86;98088.87;4468183;32;33652;-68
2022/04/07 04:09:09;;;;;;;8.25;4.60;;;;;;;9.59;60.98;98082.75;4455559;32;34620;-68
2022/04/07 04:11:37;;;;;;;8.48;4.45;;;;;;;8.92;62.73;98081.56;4452827;32;35709;-68
2022/04/07 04:14:05;;;;;;;6.03;4.00;;;;;;;8.94;62.96;98082.09;4452456;32;33720;-69
2022/04/07 04:16:32;;;;;;;6.93;4.28;;;;;;;8.73;63.73;98090.34;4462976;32;33558;-68
2022/04/07 04:19:00;;;;;;;8.32;4.80;;;;;;;8.73;63.57;98086.81;4454226;32;34391;-69
2022/04/07 04:21:27;;;;;;;5.75;3.87;;;;;;;8.58;64.07;98085.78;4459201;32;34055;-67
2022/04/07 04:23:55;;;;;;;6.50;3.97;;;;;;;8.86;63.21;98094.34;4461476;32;34629;-68
2022/04/07 04:26:23;;;;;;;7.00;3.90;;;;;;;9.02;62.66;98095.84;4467443;32;34253;-68
2022/04/07 04:28:50;;;;;;;6.43;3.83;;;;;;;9.16;62.53;98087.94;4467958;32;33894;-68
2022/04/07 04:31:17;;;;;;;7.43;4.30;;;;;;;9.37;61.87;98088.63;4465384;32;34195;-68
2022/04/07 04:33:45;;;;;;;6.65;3.80;;;;;;;9.67;61.15;98086.75;4451969;32;34154;-68
2022/04/07 04:36:12;;;;;;;5.97;4.20;;;;;;;8.98;62.97;98083.97;4451913;32;33673;-68
2022/04/07 04:38:40;;;;;;;5.75;3.97;;;;;;;9.27;62.20;98082.47;4450977;32;33947;-68
2022/04/07 04:41:07;;;;;;;5.40;3.83;;;;;;;8.94;63.30;98082.09;4452247;32;35019;-68
2022/04/07 04:43:35;;;;;;;6.62;4.22;;;;;;;8.82;63.98;98075.13;4451843;32;34085;-68
2022/04/07 04:46:03;;;;;;;5.95;3.97;;;;;;;9.07;63.13;98069.84;4452369;32;34516;-68
2022/04/07 04:48:31;;;;;;;5.68;4.03;;;;;;;8.78;64.33;98073.28;4467387;32;34605;-68
2022/04/07 04:50:58;;;;;;;6.68;4.03;;;;;;;8.51;65.66;98084.47;4467265;32;34224;-68
2022/04/07 04:53:25;;;;;;;7.00;4.40;;;;;;;8.80;64.64;98082.72;4466499;32;34097;-70
2022/04/07 04:55:53;;;;;;;6.53;3.78;;;;;;;8.98;64.31;98083.97;4467008;32;33577;-68
2022/04/07 04:58:21;;;;;;;6.45;4.07;;;;;;;8.80;64.73;98085.41;4467112;32;34633;-69
2022/04/07 05:00:48;;;;;;;7.80;4.40;;;;;;;8.45;65.49;98086.38;4464895;32;34440;-70
2022/04/07 05:03:16;;;;;;;6.35;4.37;;;;;;;9.64;62.03;98093.53;4451402;32;33955;-70
2022/04/07 05:05:43;;;;;;;6.37;3.90;;;;;;;9.06;64.28;98092.59;4437647;32;33719;-70
2022/04/07 05:08:11;;;;;;;7.53;4.50;;;;;;;8.88;65.25;98089.44;4458739;32;33961;-66
2022/04/07 05:10:40;;;;;;;7.32;4.35;;;;;;;8.57;66.72;98094.16;4469108;32;35497;-69
2022/04/07 05:13:07;;;;;;;6.32;4.43;;;;;;;8.37;66.38;98086.91;4469138;32;34204;-68
2022/04/07 05:15:37;;;;;;;7.37;4.50;;;;;;;9.03;62.47;98088.56;4467867;32;33650;-65
2022/04/07 05:18:05;;;;;;;9.90;4.65;;;;;;;8.68;65.55;98081.41;4467590;32;33909;-68
2022/04/07 05:20:33;;;;;;;6.22;4.28;;;;;;;8.80;65.80;98084.62;4468713;32;34270;-66
2022/04/07 05:23:00;;;;;;;6.90;5.10;;;;;;;9.17;64.84;98083.31;4465736;32;33800;-66
2022/04/07 05:25:28;;;;;;;7.90;4.85;;;;;;;9.28;64.39;98082.16;4468129;32;33525;-67
2022/04/07 05:27:55;;;;;;;11.23;5.22;;;;;;;9.87;62.53;98091.19;4468385;32;33734;-67
2022/04/07 05:30:23;;;;;;;7.37;5.25;;;;;;;9.55;63.28;98094.44;4468198;32;33993;-72
2022/04/07 05:32:50;;;;;;;8.32;5.07;;;;;;;9.33;64.11;98102.97;4446200;32;34833;-68
2022/04/07 05:35:18;;;;;;;10.20;5.93;;;;;;;10.21;61.19;98109.28;4468359;32;33749;-70
2022/04/07 05:37:46;;;;;;;9.43;5.30;;;;;;;10.22;61.07;98110.91;4468202;32;34598;-71
2022/04/07 05:40:13;;;;;;;7.30;4.95;;;;;;;10.42;60.90;98118.84;4467919;32;34149;-67
2022/04/07 05:42:41;;;;;;;8.45;5.35;;;;;;;10.86;59.95;98115.09;4468313;32;34207;-66
2022/04/07 05:45:09;;;;;;;8.52;5.10;;;;;;;10.45;61.54;98128.31;4468325;32;33423;-72
2022/04/07 05:47:40;;;;;;;7.43;4.57;;;;;;;10.75;60.71;98129.06;4466321;32;34712;-73
2022/04/07 05:50:11;;;;;;;6.47;4.18;;;;;;;11.03;57.77;98128.16;4466366;32;34099;-66
2022/04/07 05:52:38;;;;;;;5.43;4.00;;;;;;;10.93;57.36;98143.75;4470002;32;33707;-66
2022/04/07 05:55:06;;;;;;;6.40;4.05;;;;;;;11.38;56.36;98145.09;4484348;32;33573;-68
2022/04/07 05:57:34;;;;;;;5.45;3.42;;;;;;;12.18;53.11;98143.31;4474608;32;34610;-69
2022/04/07 06:00:16;;;;;;;5.50;3.40;;;;;;;12.28;52.05;98142.31;4453568;32;35088;-67
2022/04/07 06:02:44;;;;;;;5.35;4.00;;;;;;;12.42;52.01;98150.47;4452547;32;33965;-67
2022/04/07 06:05:16;;;;;;;5.65;3.55;;;;;;;12.63;50.69;98150.91;4452812;32;33776;-70
2022/04/07 06:07:44;;;;;;;7.95;4.32;;;;;;;13.01;49.49;98150.72;4453031;32;33705;-67
2022/04/07 06:10:13;;;;;;;6.15;4.20;;;;;;;12.79;50.56;98146.81;4452864;32;35068;-68
2022/04/07 06:12:42;;;;;;;7.47;4.20;;;;;;;12.80;50.22;98147.59;4453349;32;34208;-67
2022/04/07 06:15:10;;;;;;;6.22;3.85;;;;;;;13.26;48.94;98150.19;4453225;32;33622;-65
2022/04/07 06:17:39;;;;;;;6.15;4.10;;;;;;;12.96;50.04;98150.81;4453525;32;33676;-66
2022/04/07 06:20:08;;;;;;;6.40;4.43;;;;;;;12.90;51.03;98148.19;4466477;32;34302;-67
2022/04/07 06:22:35;;;;;;;6.22;4.12;;;;;;;12.98;51.29;98152.16;4468517;32;34267;-68
2022/04/07 06:25:04;;;;;;;5.47;3.70;;;;;;;13.45;49.11;98165.59;4468571;32;33572;-68
2022/04/07 06:27:41;;;;;;;5.75;4.00;;;;;;;13.02;50.03;98168.66;4452669;32;33964;-68
2022/04/07 06:30:11;;;;;;;6.95;4.80;;;;;;;13.31;50.61;98169.16;4468586;32;35044;-69
2022/04/07 06:32:39;;;;;;;5.85;4.15;;;;;;;13.55;51.19;98173.56;4468716;32;33794;-66
2022/04/07 06:35:08;;;;;;;6.95;3.70;;;;;;;13.75;50.31;98175.00;4468577;32;32463;-68
2022/04/07 06:37:53;;;;;;;8.18;4.20;;;;;;;13.88;49.03;98178.78;4464880;32;34324;-67
2022/04/07 06:40:22;;;;;;;5.55;3.70;;;;;;;13.97;50.55;98179.66;4468751;32;34012;-67
2022/04/07 06:42:51;;;;;;;5.55;3.85;;;;;;;14.06;50.62;98180.53;4468255;32;34312;-67
2022/04/07 06:45:28;;;;;;;6.22;4.18;;;;;;;14.19;50.08;98189.78;4468615;32;34423;-68
2022/04/07 06:47:56;;;;;;;7.12;4.50;;;;;;;14.71;48.55;98189.31;4468164;32;34013;-67
2022/04/07 06:50:25;;;;;;;6.65;4.12;;;;;;;14.47;48.90;98195.06;4468536;32;34176;-66
2022/04/07 06:52:53;;;;;;;7.28;3.92;;;;;;;14.48;48.05;98192.03;4465462;32;34255;-74
2022/04/07 06:55:22;;;;;;;7.65;3.97;;;;;;;14.66;48.18;98184.75;4453032;32;33460;-66
2022/04/07 06:57:53;;;;;;;8.48;4.50;;;;;;;14.68;48.34;98187.19;4452990;32;34661;-65
2022/04/07 07:00:22;;;;;;;7.05;3.90;;;;;;;14.68;46.81;98181.72;4456296;32;33954;-69
2022/04/07 07:02:53;;;;;;;9.20;5.68;;;;;;;14.75;46.65;98179.34;4448930;32;35617;-69
2022/04/07 07:05:25;;;;;;;7.05;3.90;;;;;;;14.93;44.76;98183.75;4471984;32;33768;-67
2022/04/07 07:07:53;;;;;;;6.28;4.25;;;;;;;14.55;50.51;98180.69;4464998;32;33664;-68
2022/04/07 07:10:22;;;;;;;7.53;5.07;;;;;;;14.29;52.34;98181.31;4466650;32;33955;-65
2022/04/07 07:12:51;;;;;;;6.95;4.40;;;;;;;13.95;52.47;98184.59;4472111;32;34219;-68
2022/04/07 07:15:21;;;;;;;6.55;4.10;;;;;;;13.83;53.11;98182.44;4458381;32;33489;-69
2022/04/07 07:17:48;;;;;;;8.18;4.72;;;;;;;13.72;53.31;98192.78;4464831;32;34785;-67
2022/04/07 07:20:16;;;;;;;6.60;4.12;;;;;;;13.86;54.27;98191.91;4458154;32;34096;-69
2022/04/07 07:22:44;;;;;;;5.50;3.95;;;;;;;13.82;52.96;98190.94;4452273;32;34079;-67
2022/04/07 07:25:11;;;;;;;6.32;4.18;;;;;;;13.98;52.45;98185.94;4466619;32;33788;-67
2022/04/07 07:27:46;;;;;;;7.05;4.15;;;;;;;13.77;53.18;98189.13;4452395;32;33676;-67
2022/04/07 07:30:16;;;;;;;6.35;4.22;;;;;;;14.21;52.70;98184.81;4453257;32;35234;-69
2022/04/07 07:32:46;;;;;;;7.25;4.32;;;;;;;14.22;52.75;98191.06;4452371;32;33894;-68
2022/04/07 07:35:15;;;;;;;7.50;4.55;;;;;;;14.34;51.29;98188.56;4438008;32;32886;-69
2022/04/07 07:37:52;;;;;;;7.12;4.43;;;;;;;13.99;53.07;98193.78;4453150;32;34655;-70
2022/04/07 07:40:22;;;;;;;6.57;4.50;;;;;;;13.62;53.51;98186.75;4468011;32;34283;-68
2022/04/07 07:42:52;;;;;;;7.75;4.20;;;;;;;14.15;51.47;98191.50;4467582;32;33950;-67
2022/04/07 07:45:20;;;;;;;5.70;3.90;;;;;;;14.50;51.75;98189.78;4468388;32;33315;-69
2022/04/07 07:48:07;;;;;;;6.10;3.83;;;;;;;14.21;51.65;98192.16;4468058;32;33889;-68
2022/04/07 07:50:38;;;;;;;7.90;4.37;;;;;;;14.03;51.21;98191.25;4466868;32;35128;-68
2022/04/07 07:53:05;;;;;;;6.05;3.62;;;;;;;14.81;51.78;98196.38;4464041;32;33699;-69
2022/04/07 07:55:35;;;;;;;6.70;4.00;;;;;;;14.78;51.31;98195.09;4458829;32;33724;-69
2022/04/07 07:58:04;;;;;;;7.62;4.70;;;;;;;14.97;46.24;98203.06;4466711;32;33789;-68
2022/04/07 08:00:31;;;;;;;6.50;4.03;;;;;;;14.73;48.62;98198.78;4454232;32;34147;-67
2022/04/07 08:02:59;;;;;;;6.03;3.53;;;;;;;14.65;48.61;98201.47;4467895;32;34064;-67
2022/04/07 08:05:29;;;;;;;6.07;3.95;;;;;;;15.26;49.07;98198.97;4467879;32;33677;-68
2022/04/07 08:07:57;;;;;;;6.32;4.20;;;;;;;15.39;46.08;98195.28;4468130;32;34764;-69
2022/04/07 08:10:25;;;;;;;5.57;4.12;;;;;;;15.66;45.71;98205.16;4466896;32;34951;-70
2022/04/07 08:12:52;;;;;;;7.12;4.10;;;;;;;15.77;45.01;98198.28;4482760;32;34162;-69
2022/04/07 08:15:19;;;;;;;6.57;4.53;;;;;;;16.19;45.06;98209.50;4483598;32;33600;-70
2022/04/07 08:17:48;;;;;;;6.05;3.53;;;;;;;16.03;47.35;98211.16;4483870;32;33636;-70
2022/04/07 08:20:16;;;;;;;7.32;4.53;;;;;;;15.92;46.02;98209.87;4483920;32;34938;-66
2022/04/07 08:22:43;;;;;;;5.45;3.53;;;;;;;16.27;46.01;98205.16;4483535;32;33697;-69
2022/04/07 08:25:11;;;;;;;5.60;3.90;;;;;;;16.31;46.09;98208.06;4466197;32;34632;-67
2022/04/07 08:27:38;;;;;;;7.45;3.83;;;;;;;16.32;47.14;98213.19;4460200;32;33719;-68
2022/04/07 08:30:07;;;;;;;6.72;4.05;;;;;;;16.68;45.86;98216.69;4451760;32;34254;-68
2022/04/07 08:32:34;;;;;;;8.05;4.55;;;;;;;16.49;46.58;98225.25;4452198;32;34722;-67
2022/04/07 08:35:02;;;;;;;6.12;3.65;;;;;;;15.84;47.49;98224.34;4451631;32;33405;-68
2022/04/07 08:37:30;;;;;;;7.10;4.22;;;;;;;14.81;48.16;98212.78;4451297;32;33767;-67
2022/04/07 08:39:58;;;;;;;7.00;4.22;;;;;;;15.35;48.55;98213.44;4466855;32;35073;-67
2022/04/07 08:42:26;;;;;;;8.55;4.75;;;;;;;15.43;48.82;98215.41;4467551;32;34833;-67
2022/04/07 08:44:54;;;;;;;7.03;4.82;;;;;;;15.33;50.15;98212.94;4458988;32;33696;-71
2022/04/07 08:47:23;;;;;;;7.03;4.60;;;;;;;14.65;49.72;98201.47;4439952;32;33312;-69
2022/04/07 08:49:51;;;;;;;7.40;5.12;;;;;;;15.20;49.12;98205.69;4453740;32;34260;-67
2022/04/07 08:52:19;;;;;;;9.68;5.47;;;;;;;15.20;49.75;98205.69;4463978;32;34211;-68
2022/04/07 08:54:47;;;;;;;8.30;5.05;;;;;;;15.49;49.89;98208.66;4469079;32;34543;-69
2022/04/07 08:57:15;;;;;;;7.80;5.05;;;;;;;14.84;51.25;98202.03;4469455;32;33664;-69
2022/04/07 08:59:43;;;;;;;8.25;5.37;;;;;;;15.42;49.99;98197.41;4455184;32;34618;-70
2022/04/07 09:02:10;;;;;;;8.82;5.20;;;;;;;15.68;49.27;98199.34;4469479;32;34303;-68
2022/04/07 09:04:40;;;;;;;8.68;5.30;;;;;;;15.78;49.35;98204.53;4457011;32;33383;-69
2022/04/07 09:07:08;;;;;;;8.15;5.05;;;;;;;15.59;50.00;98193.88;4453566;32;34213;-67
2022/04/07 09:09:36;;;;;;;9.05;5.60;;;;;;;15.66;48.47;98196.94;4439809;32;33861;-70
2022/04/07 09:12:05;;;;;;;7.07;4.57;;;;;;;15.02;51.25;98197.44;4453674;32;34235;-69
2022/04/07 09:14:37;;;;;;;7.30;4.78;;;;;;;14.46;51.69;98188.81;4453231;32;34200;-74
2022/04/07 09:17:05;;;;;;;7.87;5.20;;;;;;;14.88;49.83;98185.81;4453806;32;33712;-73
2022/04/07 09:19:36;;;;;;;6.68;4.60;;;;;;;15.25;51.59;98186.41;4453936;32;34331;-69
2022/04/07 09:22:09;;;;;;;8.50;4.65;;;;;;;15.96;49.48;98186.19;4440575;32;35119;-69
2022/04/07 09:24:37;;;;;;;6.18;4.43;;;;;;;15.93;46.86;98179.44;4453324;32;33530;-69
2022/04/07 09:27:06;;;;;;;8.85;5.97;;;;;;;15.49;48.39;98186.00;4461850;32;34688;-71
2022/04/07 09:29:42;;;;;;;9.75;6.53;;;;;;;15.51;51.26;98184.53;4453185;32;35266;-71
2022/04/07 09:32:25;;;;;;;9.75;6.35;;;;;;;15.48;50.48;98182.44;4469209;32;33927;-69
2022/04/07 09:34:54;;;;;;;10.70;7.32;;;;;;;15.76;49.09;98177.50;4454550;32;33598;-70
2022/04/07 09:37:24;;;;;;;10.02;6.62;;;;;;;15.09;50.86;98184.12;4451330;32;33475;-70
2022/04/07 09:40:05;;;;;;;11.55;7.12;;;;;;;16.09;49.32;98185.22;4468267;32;34074;-70
2022/04/07 09:42:34;;;;;;;10.27;6.37;;;;;;;15.88;50.38;98176.06;4453854;32;34211;-69
2022/04/07 09:45:03;;;;;;;9.85;5.93;;;;;;;15.83;48.98;98178.94;4453339;32;33235;-69
2022/04/07 09:47:43;;;;;;;9.90;5.97;;;;;;;15.77;50.82;98178.31;4453713;32;33929;-69
2022/04/07 09:50:32;;;;;;;10.98;6.00;;;;;;;15.75;49.34;98178.66;4439551;32;35550;-69
2022/04/07 09:53:06;;;;;;;9.63;5.72;;;;;;;15.99;49.00;98169.94;4453854;32;33731;-69
2022/04/07 09:55:35;;;;;;;7.97;5.30;;;;;;;15.96;49.18;98167.88;4454678;32;34239;-70
2022/04/07 09:58:08;;;;;;;8.48;5.80;;;;;;;16.68;47.84;98164.66;4439995;32;33875;-70
2022/04/07 10:00:37;;;;;;;7.60;5.10;;;;;;;17.15;47.51;98170.91;4453480;32;34222;-70
2022/04/07 10:03:05;;;;;;;9.15;5.05;;;;;;;17.39;44.68;98156.56;4453038;32;34324;-69
2022/04/07 10:05:34;;;;;;;7.53;4.37;;;;;;;17.33;44.61;98166.13;4439416;32;34353;-70
2022/04/07 10:08:02;;;;;;;7.30;4.45;;;;;;;17.85;44.12;98161.44;4454006;32;33538;-70
2022/04/07 10:10:30;;;;;;;7.10;4.65;;;;;;;17.68;42.17;98157.66;4465401;32;33918;-70
2022/04/07 10:12:59;;;;;;;7.45;4.25;;;;;;;17.90;42.98;98159.25;4468828;32;34193;-70
2022/04/07 10:15:27;;;;;;;8.05;4.57;;;;;;;18.20;41.40;98151.72;4469209;32;33877;-70
2022/04/07 10:17:57;;;;;;;5.10;3.67;;;;;;;18.16;41.93;98156.31;4469111;32;34316;-70
2022/04/07 10:20:33;;;;;;;8.13;3.67;;;;;;;17.72;42.28;98150.34;4455086;32;35061;-69
2022/04/07 10:23:21;;;;;;;5.55;4.00;;;;;;;17.11;44.33;98155.47;4453767;32;34042;-70
2022/04/07 10:25:49;;;;;;;6.68;3.67;;;;;;;17.31;43.63;98148.41;4466625;32;33248;-69
2022/04/07 10:28:19;;;;;;;5.40;3.50;;;;;;;18.04;41.56;98139.78;4455200;32;34551;-69
2022/04/07 10:30:48;;;;;;;4.65;2.90;;;;;;;17.77;41.61;98130.94;4468789;32;34187;-70
2022/04/07 10:33:47;;;;;;;4.65;2.97;;;;;;;17.21;41.29;98123.00;4454637;32;34088;-69
2022/04/07 10:36:23;;;;;;;4.53;2.90;;;;;;;17.60;41.75;98126.44;4439639;32;34561;-69
2022/04/07 10:38:52;;;;;;;4.55;2.70;;;;;;;17.59;40.07;98130.28;4452811;32;33900;-69
2022/04/07 10:41:37;;;;;;;5.15;2.65;;;;;;;17.72;41.35;98128.41;4454163;32;34446;-69
2022/04/07 10:44:15;;;;;;;4.03;2.62;;;;;;;18.04;40.24;98126.06;4452942;32;34622;-69
2022/04/07 10:46:43;;;;;;;4.82;2.45;;;;;;;17.41;40.13;98121.41;4452740;32;33673;-69
2022/04/07 10:49:19;;;;;;;4.20;2.55;;;;;;;18.32;40.25;98119.97;4442732;32;34604;-70
2022/04/07 10:51:55;;;;;;;4.55;2.60;;;;;;;17.89;40.80;98105.53;4454420;32;34897;-70
2022/04/07 10:54:24;;;;;;;3.22;2.20;;;;;;;18.76;39.88;98104.56;4468140;32;34230;-72
2022/04/07 10:56:53;;;;;;;3.78;2.58;;;;;;;18.71;36.88;98104.00;4464810;32;34430;-71
2022/04/07 10:59:21;;;;;;;3.80;2.20;;;;;;;19.10;40.40;98105.25;4466673;32;33810;-72
2022/04/07 11:01:58;;;;;;;3.40;2.37;;;;;;;19.14;36.19;98094.38;4466301;32;34295;-70
2022/04/07 11:04:26;;;;;;;3.75;2.40;;;;;;;18.13;37.12;98091.09;4465959;32;34055;-68
2022/04/07 11:07:11;;;;;;;3.80;2.55;;;;;;;18.68;36.05;98096.44;4466214;32;34172;-69
2022/04/07 11:10:02;;;;;;;3.25;2.03;;;;;;;18.53;35.53;98090.47;4468629;32;34095;-66
2022/04/07 11:12:39;;;;;;;4.28;2.30;;;;;;;18.98;34.87;98091.53;4468553;32;34893;-66
2022/04/07 11:15:06;;;;;;;2.92;2.10;;;;;;;18.94;34.65;98088.69;4468533;32;34668;-66
2022/04/07 11:17:36;;;;;;;3.65;2.22;;;;;;;18.47;35.47;98085.56;4468481;32;33537;-67
2022/04/07 11:20:25;;;;;;;2.67;1.95;;;;;;;19.24;36.03;98089.22;4468661;32;33870;-68
2022/04/07 11:22:54;;;;;;;3.20;2.17;;;;;;;18.91;36.96;98088.56;4453099;32;32975;-67
2022/04/07 11:25:31;;;;;;;4.97;2.05;;;;;;;18.90;35.87;98090.53;4452867;32;34407;-66
2022/04/07 11:28:10;;;;;;;3.90;2.55;;;;;;;19.15;35.76;98085.78;4452983;32;33344;-69
2022/04/07 11:30:47;;;;;;;3.67;2.15;;;;;;;18.54;35.51;98088.53;4453121;32;33999;-67
2022/04/07 11:33:18;;;;;;;5.03;2.15;;;;;;;19.01;35.61;98091.66;4452467;32;34766;-67
2022/04/07 11:36:00;;;;;;;4.25;2.60;;;;;;;19.13;35.63;98087.28;4467030;32;34014;-68
2022/04/07 11:38:42;;;;;;;5.05;2.35;;;;;;;19.71;35.25;98090.59;4462492;32;33477;-70
2022/04/07 11:41:12;;;;;;;3.83;2.00;;;;;;;19.19;34.92;98077.66;4467694;32;33556;-70
2022/04/07 11:43:42;;;;;;;3.80;2.60;;;;;;;19.13;34.00;98076.28;4467752;32;34238;-69
2022/04/07 11:46:09;;;;;;;3.37;2.08;;;;;;;18.31;35.29;98066.97;4468170;32;35092;-69
2022/04/07 11:48:58;;;;;;;3.83;2.47;;;;;;;18.06;35.87;98065.34;4455912;32;33510;-69